sensor_id;sensor_type;location;lat;lon;timestamp;pressure;altitude;pressure_sealevel;temperature;humidity
73063;BME280;61230;46.328;19.972;2022-11-15T00:00:55;101169.59;;;3.61;100.00
73063;BME280;61230;46.328;19.972;2022-11-15T00:03:41;101163.63;;;3.59;100.00
73063;BME280;61230;46.328;19.972;2022-11-15T00:06:27;101174.59;;;3.65;100.00
73063;BME280;61230;46.328;19.972;2022-11-15T00:09:13;101174.50;;;3.67;100.00
73063;BME280;61230;46.328;19.972;2022-11-15T00:11:59;101178.22;;;3.78;100.00
73063;BME280;61230;46.328;19.972;2022-11-15T00:14:45;101174.47;;;3.84;100.00
73063;BME280;61230;46.328;19.972;2022-11-15T00:17:31;101163.06;;;3.86;100.00
73063;BME280;61230;46.328;19.972;2022-11-15T00:20:17;101158.47;;;3.91;100.00
73063;BME280;61230;46.328;19.972;2022-11-15T00:23:04;101150.72;;;3.90;100.00
73063;BME280;61230;46.328;19.972;2022-11-15T00:25:57;101164.00;;;3.85;100.00
73063;BME280;61230;46.328;19.972;2022-11-15T00:28:44;101162.03;;;3.89;100.00
73063;BME280;61230;46.328;19.972;2022-11-15T00:31:29;101161.81;;;3.93;100.00
73063;BME280;61230;46.328;19.972;2022-11-15T00:34:15;101160.28;;;3.89;100.00
73063;BME280;61230;46.328;19.972;2022-11-15T00:37:01;101167.41;;;4.19;100.00
73063;BME280;61230;46.328;19.972;2022-11-15T00:39:50;101165.00;;;4.31;100.00
73063;BME280;61230;46.328;19.972;2022-11-15T00:42:36;101150.19;;;4.16;100.00
73063;BME280;61230;46.328;19.972;2022-11-15T00:45:22;101146.25;;;4.25;100.00
73063;BME280;61230;46.328;19.972;2022-11-15T00:48:09;101132.03;;;4.15;100.00
73063;BME280;61230;46.328;19.972;2022-11-15T00:50:55;101138.19;;;4.29;100.00
73063;BME280;61230;46.328;19.972;2022-11-15T00:53:41;101149.88;;;4.22;100.00
73063;BME280;61230;46.328;19.972;2022-11-15T00:56:27;101143.47;;;4.43;100.00
73063;BME280;61230;46.328;19.972;2022-11-15T00:59:13;101138.75;;;4.34;100.00
73063;BME280;61230;46.328;19.972;2022-11-15T01:01:59;101134.25;;;4.53;100.00
73063;BME280;61230;46.328;19.972;2022-11-15T01:04:45;101130.38;;;4.45;100.00
73063;BME280;61230;46.328;19.972;2022-11-15T01:07:31;101132.66;;;4.51;100.00
73063;BME280;61230;46.328;19.972;2022-11-15T01:10:17;101136.78;;;4.39;100.00
73063;BME280;61230;46.328;19.972;2022-11-15T01:13:03;101135.59;;;4.45;100.00
73063;BME280;61230;46.328;19.972;2022-11-15T01:15:49;101131.31;;;4.59;100.00
73063;BME280;61230;46.328;19.972;2022-11-15T01:18:35;101127.28;;;4.54;100.00
73063;BME280;61230;46.328;19.972;2022-11-15T01:21:21;101125.25;;;4.43;100.00
73063;BME280;61230;46.328;19.972;2022-11-15T01:24:08;101124.59;;;4.40;100.00
73063;BME280;61230;46.328;19.972;2022-11-15T01:26:57;101121.13;;;4.24;100.00
73063;BME280;61230;46.328;19.972;2022-11-15T01:29:43;101126.75;;;4.16;100.00
73063;BME280;61230;46.328;19.972;2022-11-15T01:32:29;101128.87;;;4.25;100.00
73063;BME280;61230;46.328;19.972;2022-11-15T01:35:16;101122.06;;;4.38;100.00
73063;BME280;61230;46.328;19.972;2022-11-15T01:38:01;101114.84;;;4.28;100.00
73063;BME280;61230;46.328;19.972;2022-11-15T01:40:48;101120.38;;;4.37;100.00
73063;BME280;61230;46.328;19.972;2022-11-15T01:43:36;101109.94;;;4.53;100.00
73063;BME280;61230;46.328;19.972;2022-11-15T01:46:33;101106.31;;;4.55;100.00
73063;BME280;61230;46.328;19.972;2022-11-15T01:49:22;101109.53;;;4.45;100.00
73063;BME280;61230;46.328;19.972;2022-11-15T01:52:13;101109.13;;;4.37;100.00
73063;BME280;61230;46.328;19.972;2022-11-15T01:55:05;101114.34;;;4.37;100.00
73063;BME280;61230;46.328;19.972;2022-11-15T01:57:57;101110.22;;;4.33;100.00
73063;BME280;61230;46.328;19.972;2022-11-15T02:00:45;101117.59;;;4.40;100.00
73063;BME280;61230;46.328;19.972;2022-11-15T02:03:37;101115.16;;;4.22;100.00
73063;BME280;61230;46.328;19.972;2022-11-15T02:06:26;101111.06;;;4.33;100.00
73063;BME280;61230;46.328;19.972;2022-11-15T02:09:12;101118.19;;;4.30;100.00
73063;BME280;61230;46.328;19.972;2022-11-15T02:11:59;101110.97;;;4.19;100.00
73063;BME280;61230;46.328;19.972;2022-11-15T02:14:49;101106.59;;;4.20;100.00
73063;BME280;61230;46.328;19.972;2022-11-15T02:18:01;101096.09;;;4.21;100.00
73063;BME280;61230;46.328;19.972;2022-11-15T02:23:56;101094.25;;;4.39;100.00
73063;BME280;61230;46.328;19.972;2022-11-15T02:30:21;101089.47;;;4.31;100.00
73063;BME280;61230;46.328;19.972;2022-11-15T02:33:20;101095.31;;;4.35;100.00
73063;BME280;61230;46.328;19.972;2022-11-15T02:36:15;101095.25;;;4.21;100.00
73063;BME280;61230;46.328;19.972;2022-11-15T02:39:15;101086.59;;;4.36;100.00
73063;BME280;61230;46.328;19.972;2022-11-15T02:42:08;101082.38;;;4.49;100.00
73063;BME280;61230;46.328;19.972;2022-11-15T02:45:23;101093.31;;;4.55;100.00
73063;BME280;61230;46.328;19.972;2022-11-15T02:48:11;101094.47;;;4.50;100.00
73063;BME280;61230;46.328;19.972;2022-11-15T02:50:58;101085.75;;;4.51;100.00
73063;BME280;61230;46.328;19.972;2022-11-15T02:53:45;101094.44;;;4.65;100.00
73063;BME280;61230;46.328;19.972;2022-11-15T02:56:30;101089.72;;;4.42;100.00
73063;BME280;61230;46.328;19.972;2022-11-15T03:08:31;101090.97;;;4.20;100.00
73063;BME280;61230;46.328;19.972;2022-11-15T03:11:19;101083.25;;;4.34;100.00
73063;BME280;61230;46.328;19.972;2022-11-15T03:14:22;101087.34;;;4.22;100.00
73063;BME280;61230;46.328;19.972;2022-11-15T03:20:10;101070.81;;;4.07;100.00
73063;BME280;61230;46.328;19.972;2022-11-15T03:23:04;101073.00;;;4.31;100.00
73063;BME280;61230;46.328;19.972;2022-11-15T03:25:51;101078.84;;;4.34;100.00
73063;BME280;61230;46.328;19.972;2022-11-15T03:28:44;101074.81;;;4.44;100.00
73063;BME280;61230;46.328;19.972;2022-11-15T03:31:35;101066.69;;;4.19;100.00
73063;BME280;61230;46.328;19.972;2022-11-15T03:34:59;101066.25;;;4.27;100.00
73063;BME280;61230;46.328;19.972;2022-11-15T03:40:41;101051.66;;;4.09;100.00
73063;BME280;61230;46.328;19.972;2022-11-15T03:43:45;101052.47;;;4.09;100.00
73063;BME280;61230;46.328;19.972;2022-11-15T03:47:02;101043.59;;;4.13;100.00
73063;BME280;61230;46.328;19.972;2022-11-15T03:50:06;101049.63;;;3.98;100.00
73063;BME280;61230;46.328;19.972;2022-11-15T03:52:54;101051.47;;;3.96;100.00
73063;BME280;61230;46.328;19.972;2022-11-15T03:55:40;101044.31;;;3.84;100.00
73063;BME280;61230;46.328;19.972;2022-11-15T03:58:26;101038.31;;;3.99;100.00
73063;BME280;61230;46.328;19.972;2022-11-15T04:01:12;101032.34;;;3.97;100.00
73063;BME280;61230;46.328;19.972;2022-11-15T04:03:59;101023.59;;;3.98;100.00
73063;BME280;61230;46.328;19.972;2022-11-15T04:06:45;101025.19;;;4.00;100.00
73063;BME280;61230;46.328;19.972;2022-11-15T04:09:31;101023.84;;;4.09;100.00
73063;BME280;61230;46.328;19.972;2022-11-15T04:12:17;101032.75;;;4.05;100.00
73063;BME280;61230;46.328;19.972;2022-11-15T04:15:20;101033.34;;;4.10;100.00
73063;BME280;61230;46.328;19.972;2022-11-15T04:18:07;101039.56;;;4.07;100.00
73063;BME280;61230;46.328;19.972;2022-11-15T04:20:52;101030.16;;;4.05;100.00
73063;BME280;61230;46.328;19.972;2022-11-15T04:24:01;101031.16;;;4.02;100.00
73063;BME280;61230;46.328;19.972;2022-11-15T04:26:52;101026.53;;;4.07;100.00
73063;BME280;61230;46.328;19.972;2022-11-15T04:29:42;101017.47;;;3.99;100.00
73063;BME280;61230;46.328;19.972;2022-11-15T04:32:28;101021.41;;;4.06;100.00
73063;BME280;61230;46.328;19.972;2022-11-15T04:35:13;101022.41;;;4.03;100.00
73063;BME280;61230;46.328;19.972;2022-11-15T04:38:00;101007.13;;;3.97;100.00
73063;BME280;61230;46.328;19.972;2022-11-15T04:40:46;101002.59;;;4.01;100.00
73063;BME280;61230;46.328;19.972;2022-11-15T04:43:32;101004.94;;;3.90;100.00
73063;BME280;61230;46.328;19.972;2022-11-15T04:46:19;100994.38;;;3.93;100.00
73063;BME280;61230;46.328;19.972;2022-11-15T04:49:05;100988.72;;;4.00;100.00
73063;BME280;61230;46.328;19.972;2022-11-15T04:51:50;100990.25;;;3.89;100.00
73063;BME280;61230;46.328;19.972;2022-11-15T04:54:36;100992.19;;;4.01;100.00
73063;BME280;61230;46.328;19.972;2022-11-15T04:57:22;100997.22;;;4.04;100.00
73063;BME280;61230;46.328;19.972;2022-11-15T05:00:13;101013.53;;;4.07;100.00
73063;BME280;61230;46.328;19.972;2022-11-15T05:02:59;101002.78;;;4.14;100.00
73063;BME280;61230;46.328;19.972;2022-11-15T05:06:05;100998.06;;;3.89;100.00
73063;BME280;61230;46.328;19.972;2022-11-15T05:08:51;100989.50;;;4.02;100.00
73063;BME280;61230;46.328;19.972;2022-11-15T05:11:37;101001.47;;;4.21;100.00
73063;BME280;61230;46.328;19.972;2022-11-15T05:14:23;101001.31;;;4.24;100.00
73063;BME280;61230;46.328;19.972;2022-11-15T05:17:09;100996.78;;;4.12;100.00
73063;BME280;61230;46.328;19.972;2022-11-15T05:19:57;101002.44;;;4.20;100.00
73063;BME280;61230;46.328;19.972;2022-11-15T05:22:43;101003.06;;;4.23;100.00
73063;BME280;61230;46.328;19.972;2022-11-15T05:25:29;100999.72;;;4.21;100.00
73063;BME280;61230;46.328;19.972;2022-11-15T05:28:16;100987.72;;;4.19;100.00
73063;BME280;61230;46.328;19.972;2022-11-15T05:31:07;101004.81;;;4.38;100.00
73063;BME280;61230;46.328;19.972;2022-11-15T05:33:53;101006.41;;;4.41;100.00
73063;BME280;61230;46.328;19.972;2022-11-15T05:36:43;100987.28;;;4.26;100.00
73063;BME280;61230;46.328;19.972;2022-11-15T05:39:33;100991.19;;;4.49;100.00
73063;BME280;61230;46.328;19.972;2022-11-15T05:42:19;100994.81;;;4.46;100.00
73063;BME280;61230;46.328;19.972;2022-11-15T05:45:06;100993.22;;;4.44;100.00
73063;BME280;61230;46.328;19.972;2022-11-15T05:47:53;100985.91;;;4.35;100.00
73063;BME280;61230;46.328;19.972;2022-11-15T05:50:44;100991.91;;;4.37;100.00
73063;BME280;61230;46.328;19.972;2022-11-15T05:53:31;100991.91;;;4.37;100.00
73063;BME280;61230;46.328;19.972;2022-11-15T05:56:18;100968.19;;;4.41;100.00
73063;BME280;61230;46.328;19.972;2022-11-15T05:59:05;100983.19;;;4.52;100.00
73063;BME280;61230;46.328;19.972;2022-11-15T06:01:52;100974.12;;;4.43;100.00
73063;BME280;61230;46.328;19.972;2022-11-15T06:04:39;100985.78;;;4.52;100.00
73063;BME280;61230;46.328;19.972;2022-11-15T06:07:24;100980.75;;;4.49;100.00
73063;BME280;61230;46.328;19.972;2022-11-15T06:10:11;100988.53;;;4.35;100.00
73063;BME280;61230;46.328;19.972;2022-11-15T06:13:02;100994.09;;;4.58;100.00
73063;BME280;61230;46.328;19.972;2022-11-15T06:15:48;101002.66;;;4.60;100.00
73063;BME280;61230;46.328;19.972;2022-11-15T06:18:35;100993.66;;;4.66;100.00
73063;BME280;61230;46.328;19.972;2022-11-15T06:21:21;100999.53;;;4.70;100.00
73063;BME280;61230;46.328;19.972;2022-11-15T06:24:07;100995.12;;;4.56;100.00
73063;BME280;61230;46.328;19.972;2022-11-15T06:26:53;100999.06;;;4.77;100.00
73063;BME280;61230;46.328;19.972;2022-11-15T06:29:39;100996.69;;;4.88;100.00
73063;BME280;61230;46.328;19.972;2022-11-15T06:32:25;100996.31;;;4.94;100.00
73063;BME280;61230;46.328;19.972;2022-11-15T06:35:11;100991.56;;;4.87;100.00
73063;BME280;61230;46.328;19.972;2022-11-15T06:38:08;100998.28;;;4.91;100.00
73063;BME280;61230;46.328;19.972;2022-11-15T06:40:54;100994.66;;;4.93;100.00
73063;BME280;61230;46.328;19.972;2022-11-15T06:43:41;100988.78;;;4.90;100.00
73063;BME280;61230;46.328;19.972;2022-11-15T06:46:27;101005.66;;;5.12;100.00
73063;BME280;61230;46.328;19.972;2022-11-15T06:49:14;100991.47;;;5.02;100.00
73063;BME280;61230;46.328;19.972;2022-11-15T06:52:00;100995.72;;;5.19;100.00
73063;BME280;61230;46.328;19.972;2022-11-15T06:54:45;100999.91;;;5.36;100.00
73063;BME280;61230;46.328;19.972;2022-11-15T06:57:32;101000.47;;;5.41;100.00
73063;BME280;61230;46.328;19.972;2022-11-15T07:00:20;101002.78;;;5.45;100.00
73063;BME280;61230;46.328;19.972;2022-11-15T07:03:08;100999.13;;;5.48;100.00
73063;BME280;61230;46.328;19.972;2022-11-15T07:05:56;100998.12;;;5.50;100.00
73063;BME280;61230;46.328;19.972;2022-11-15T07:08:50;100983.03;;;5.41;100.00
73063;BME280;61230;46.328;19.972;2022-11-15T07:11:36;100988.12;;;5.57;100.00
73063;BME280;61230;46.328;19.972;2022-11-15T07:14:21;100986.47;;;5.56;100.00
73063;BME280;61230;46.328;19.972;2022-11-15T07:17:07;100989.63;;;5.61;100.00
73063;BME280;61230;46.328;19.972;2022-11-15T07:19:53;100986.09;;;5.76;100.00
73063;BME280;61230;46.328;19.972;2022-11-15T07:22:40;100984.94;;;5.80;100.00
73063;BME280;61230;46.328;19.972;2022-11-15T07:25:26;100976.00;;;5.84;100.00
73063;BME280;61230;46.328;19.972;2022-11-15T07:28:12;100977.47;;;5.88;100.00
73063;BME280;61230;46.328;19.972;2022-11-15T07:31:02;100977.09;;;5.94;100.00
73063;BME280;61230;46.328;19.972;2022-11-15T07:33:48;100971.69;;;5.97;100.00
73063;BME280;61230;46.328;19.972;2022-11-15T07:36:34;100971.59;;;5.99;100.00
73063;BME280;61230;46.328;19.972;2022-11-15T07:39:19;100973.13;;;6.15;100.00
73063;BME280;61230;46.328;19.972;2022-11-15T07:42:06;100973.53;;;6.09;100.00
73063;BME280;61230;46.328;19.972;2022-11-15T07:45:10;100973.34;;;6.25;100.00
73063;BME280;61230;46.328;19.972;2022-11-15T07:47:56;100977.66;;;6.38;100.00
73063;BME280;61230;46.328;19.972;2022-11-15T07:50:42;100970.47;;;6.42;100.00
73063;BME280;61230;46.328;19.972;2022-11-15T07:53:28;100969.88;;;6.51;100.00
73063;BME280;61230;46.328;19.972;2022-11-15T07:56:15;100950.22;;;6.46;100.00
73063;BME280;61230;46.328;19.972;2022-11-15T07:59:01;100954.50;;;6.59;100.00
73063;BME280;61230;46.328;19.972;2022-11-15T08:01:47;100951.25;;;6.56;100.00
73063;BME280;61230;46.328;19.972;2022-11-15T08:04:33;100961.09;;;6.65;100.00
73063;BME280;61230;46.328;19.972;2022-11-15T08:07:19;100945.22;;;6.68;100.00
73063;BME280;61230;46.328;19.972;2022-11-15T08:10:06;100943.34;;;6.70;100.00
73063;BME280;61230;46.328;19.972;2022-11-15T08:13:01;100938.41;;;6.65;100.00
73063;BME280;61230;46.328;19.972;2022-11-15T08:15:47;100939.88;;;6.57;100.00
73063;BME280;61230;46.328;19.972;2022-11-15T08:18:40;100933.22;;;6.78;100.00
73063;BME280;61230;46.328;19.972;2022-11-15T08:21:26;100942.22;;;6.86;100.00
73063;BME280;61230;46.328;19.972;2022-11-15T08:24:12;100950.25;;;6.96;100.00
73063;BME280;61230;46.328;19.972;2022-11-15T08:26:58;100947.12;;;7.04;100.00
73063;BME280;61230;46.328;19.972;2022-11-15T08:29:49;100944.91;;;7.10;100.00
73063;BME280;61230;46.328;19.972;2022-11-15T08:32:36;100949.63;;;7.05;100.00
73063;BME280;61230;46.328;19.972;2022-11-15T08:35:23;100936.97;;;6.99;100.00
73063;BME280;61230;46.328;19.972;2022-11-15T08:38:14;100936.56;;;7.05;100.00
73063;BME280;61230;46.328;19.972;2022-11-15T08:41:02;100935.50;;;7.20;100.00
73063;BME280;61230;46.328;19.972;2022-11-15T08:43:48;100923.00;;;7.24;100.00
73063;BME280;61230;46.328;19.972;2022-11-15T08:46:34;100943.09;;;7.36;100.00
73063;BME280;61230;46.328;19.972;2022-11-15T08:49:20;100939.97;;;7.43;100.00
73063;BME280;61230;46.328;19.972;2022-11-15T08:52:06;100941.91;;;7.52;100.00
73063;BME280;61230;46.328;19.972;2022-11-15T08:54:52;100941.69;;;7.56;100.00
73063;BME280;61230;46.328;19.972;2022-11-15T08:57:37;100938.03;;;7.58;100.00
73063;BME280;61230;46.328;19.972;2022-11-15T09:00:23;100939.59;;;7.61;100.00
73063;BME280;61230;46.328;19.972;2022-11-15T09:03:09;100952.69;;;7.61;100.00
73063;BME280;61230;46.328;19.972;2022-11-15T09:05:57;100938.44;;;7.65;100.00
73063;BME280;61230;46.328;19.972;2022-11-15T09:08:43;100940.72;;;7.69;100.00
73063;BME280;61230;46.328;19.972;2022-11-15T09:11:33;100946.50;;;7.74;100.00
73063;BME280;61230;46.328;19.972;2022-11-15T09:14:19;100942.47;;;7.81;100.00
73063;BME280;61230;46.328;19.972;2022-11-15T09:17:07;100932.69;;;7.83;100.00
73063;BME280;61230;46.328;19.972;2022-11-15T09:19:54;100942.16;;;7.86;100.00
73063;BME280;61230;46.328;19.972;2022-11-15T09:22:40;100935.19;;;7.97;100.00
73063;BME280;61230;46.328;19.972;2022-11-15T09:25:26;100930.03;;;7.96;100.00
73063;BME280;61230;46.328;19.972;2022-11-15T09:28:13;100926.84;;;8.03;100.00
73063;BME280;61230;46.328;19.972;2022-11-15T09:31:00;100916.69;;;8.12;100.00
73063;BME280;61230;46.328;19.972;2022-11-15T09:33:46;100915.37;;;8.17;100.00
73063;BME280;61230;46.328;19.972;2022-11-15T09:36:34;100907.16;;;8.22;100.00
73063;BME280;61230;46.328;19.972;2022-11-15T09:39:20;100903.84;;;8.20;100.00
73063;BME280;61230;46.328;19.972;2022-11-15T09:45:17;100901.50;;;8.28;100.00
73063;BME280;61230;46.328;19.972;2022-11-15T09:50:56;100891.53;;;8.44;100.00
73063;BME280;61230;46.328;19.972;2022-11-15T09:53:34;100890.84;;;8.53;100.00
73063;BME280;61230;46.328;19.972;2022-11-15T09:56:29;100888.09;;;8.54;100.00
73063;BME280;61230;46.328;19.972;2022-11-15T10:04:57;100872.03;;;8.59;99.66
73063;BME280;61230;46.328;19.972;2022-11-15T10:07:48;100871.44;;;8.66;99.82
73063;BME280;61230;46.328;19.972;2022-11-15T10:10:39;100866.78;;;8.70;99.99
73063;BME280;61230;46.328;19.972;2022-11-15T10:13:19;100867.75;;;8.80;100.00
73063;BME280;61230;46.328;19.972;2022-11-15T10:15:47;100856.16;;;8.83;100.00
73063;BME280;61230;46.328;19.972;2022-11-15T10:18:21;100858.09;;;8.81;98.63
73063;BME280;61230;46.328;19.972;2022-11-15T10:20:59;100850.94;;;9.05;98.35
73063;BME280;61230;46.328;19.972;2022-11-15T10:23:27;100861.78;;;9.11;97.97
73063;BME280;61230;46.328;19.972;2022-11-15T10:25:58;100858.91;;;9.14;97.85
73063;BME280;61230;46.328;19.972;2022-11-15T10:28:33;100855.47;;;9.25;97.53
73063;BME280;61230;46.328;19.972;2022-11-15T10:31:01;100856.38;;;9.35;96.87
73063;BME280;61230;46.328;19.972;2022-11-15T10:33:38;100847.78;;;9.44;96.61
73063;BME280;61230;46.328;19.972;2022-11-15T10:50:28;100843.13;;;9.48;97.07
73063;BME280;61230;46.328;19.972;2022-11-15T10:52:58;100849.44;;;9.45;96.97
73063;BME280;61230;46.328;19.972;2022-11-15T10:55:29;100845.62;;;9.49;97.24
73063;BME280;61230;46.328;19.972;2022-11-15T10:58:20;100842.75;;;9.52;96.60
73063;BME280;61230;46.328;19.972;2022-11-15T11:00:49;100822.91;;;9.48;96.16
73063;BME280;61230;46.328;19.972;2022-11-15T11:03:29;100814.59;;;9.75;96.37
73063;BME280;61230;46.328;19.972;2022-11-15T11:08:37;100815.31;;;10.29;95.14
73063;BME280;61230;46.328;19.972;2022-11-15T11:11:06;100818.56;;;10.43;92.83
73063;BME280;61230;46.328;19.972;2022-11-15T11:13:37;100820.09;;;10.45;93.04
73063;BME280;61230;46.328;19.972;2022-11-15T11:21:25;100807.19;;;10.63;92.42
73063;BME280;61230;46.328;19.972;2022-11-15T11:24:41;100803.47;;;10.45;91.51
73063;BME280;61230;46.328;19.972;2022-11-15T11:27:20;100786.50;;;10.28;92.74
73063;BME280;61230;46.328;19.972;2022-11-15T11:30:03;100790.41;;;10.33;92.70
73063;BME280;61230;46.328;19.972;2022-11-15T11:32:54;100785.41;;;10.30;93.30
73063;BME280;61230;46.328;19.972;2022-11-15T11:35:32;100788.03;;;10.30;93.14
73063;BME280;61230;46.328;19.972;2022-11-15T11:41:19;100776.13;;;10.57;93.10
73063;BME280;61230;46.328;19.972;2022-11-15T11:55:17;100759.41;;;10.67;91.88
73063;BME280;61230;46.328;19.972;2022-11-15T11:58:10;100756.03;;;10.86;91.61
73063;BME280;61230;46.328;19.972;2022-11-15T12:00:45;100753.00;;;11.00;91.71
73063;BME280;61230;46.328;19.972;2022-11-15T12:03:22;100756.19;;;10.94;89.76
73063;BME280;61230;46.328;19.972;2022-11-15T12:06:01;100755.59;;;10.90;90.69
73063;BME280;61230;46.328;19.972;2022-11-15T12:08:50;100743.19;;;11.12;89.75
73063;BME280;61230;46.328;19.972;2022-11-15T12:11:51;100735.84;;;11.25;88.72
73063;BME280;61230;46.328;19.972;2022-11-15T12:16:50;100700.78;;;11.05;90.96
73063;BME280;61230;46.328;19.972;2022-11-15T12:19:18;100702.88;;;11.30;88.92
73063;BME280;61230;46.328;19.972;2022-11-15T12:22:06;100700.25;;;11.40;89.06
73063;BME280;61230;46.328;19.972;2022-11-15T12:24:51;100698.16;;;11.43;88.30
73063;BME280;61230;46.328;19.972;2022-11-15T12:27:39;100701.06;;;11.50;87.47
73063;BME280;61230;46.328;19.972;2022-11-15T12:30:21;100708.69;;;11.53;87.95
73063;BME280;61230;46.328;19.972;2022-11-15T12:32:56;100702.84;;;11.69;87.39
73063;BME280;61230;46.328;19.972;2022-11-15T12:35:37;100697.47;;;11.80;87.46
73063;BME280;61230;46.328;19.972;2022-11-15T12:38:10;100708.97;;;11.88;87.22
73063;BME280;61230;46.328;19.972;2022-11-15T12:41:14;100698.00;;;11.83;86.40
73063;BME280;61230;46.328;19.972;2022-11-15T12:43:44;100710.25;;;11.75;86.57
73063;BME280;61230;46.328;19.972;2022-11-15T13:02:30;100681.78;;;11.40;88.33
73063;BME280;61230;46.328;19.972;2022-11-15T13:17:50;100666.81;;;11.31;89.63
73063;BME280;61230;46.328;19.972;2022-11-15T13:20:27;100669.31;;;11.42;89.76
73063;BME280;61230;46.328;19.972;2022-11-15T13:23:08;100676.66;;;11.48;88.79
73063;BME280;61230;46.328;19.972;2022-11-15T13:26:03;100666.00;;;11.40;88.97
73063;BME280;61230;46.328;19.972;2022-11-15T13:34:00;100660.47;;;11.24;89.90
73063;BME280;61230;46.328;19.972;2022-11-15T13:36:32;100656.12;;;11.13;89.66
73063;BME280;61230;46.328;19.972;2022-11-15T13:39:06;100649.34;;;11.11;90.04
73063;BME280;61230;46.328;19.972;2022-11-15T13:41:50;100652.12;;;11.00;90.91
73063;BME280;61230;46.328;19.972;2022-11-15T13:44:24;100651.72;;;10.94;90.92
73063;BME280;61230;46.328;19.972;2022-11-15T13:47:22;100650.56;;;10.87;91.71
73063;BME280;61230;46.328;19.972;2022-11-15T13:49:57;100646.44;;;10.75;92.22
73063;BME280;61230;46.328;19.972;2022-11-15T13:52:30;100621.59;;;10.68;92.53
73063;BME280;61230;46.328;19.972;2022-11-15T13:55:03;100630.91;;;10.72;92.73
73063;BME280;61230;46.328;19.972;2022-11-15T14:00:40;100627.13;;;10.65;92.81
73063;BME280;61230;46.328;19.972;2022-11-15T14:03:24;100628.50;;;10.60;93.32
73063;BME280;61230;46.328;19.972;2022-11-15T14:06:08;100619.94;;;10.58;93.67
73063;BME280;61230;46.328;19.972;2022-11-15T14:09:00;100622.16;;;10.53;93.85
73063;BME280;61230;46.328;19.972;2022-11-15T14:11:28;100613.00;;;10.47;94.10
73063;BME280;61230;46.328;19.972;2022-11-15T14:16:40;100618.12;;;10.49;94.52
73063;BME280;61230;46.328;19.972;2022-11-15T14:19:11;100608.00;;;10.54;94.83
73063;BME280;61230;46.328;19.972;2022-11-15T14:25:06;100603.16;;;10.59;95.32
73063;BME280;61230;46.328;19.972;2022-11-15T14:27:34;100599.16;;;10.64;94.57
73063;BME280;61230;46.328;19.972;2022-11-15T14:30:04;100592.38;;;10.62;94.58
73063;BME280;61230;46.328;19.972;2022-11-15T14:32:52;100599.84;;;10.57;94.92
73063;BME280;61230;46.328;19.972;2022-11-15T14:35:22;100595.12;;;10.51;95.14
73063;BME280;61230;46.328;19.972;2022-11-15T14:37:50;100586.13;;;10.44;95.59
73063;BME280;61230;46.328;19.972;2022-11-15T14:40:20;100584.16;;;10.36;95.94
73063;BME280;61230;46.328;19.972;2022-11-15T14:42:49;100586.63;;;10.28;96.34
73063;BME280;61230;46.328;19.972;2022-11-15T14:45:21;100584.25;;;10.25;96.39
73063;BME280;61230;46.328;19.972;2022-11-15T14:47:49;100585.09;;;10.16;96.73
73063;BME280;61230;46.328;19.972;2022-11-15T14:50:21;100580.03;;;10.03;97.38
73063;BME280;61230;46.328;19.972;2022-11-15T14:52:49;100586.06;;;9.94;97.98
73063;BME280;61230;46.328;19.972;2022-11-15T14:55:18;100580.22;;;9.81;98.97
73063;BME280;61230;46.328;19.972;2022-11-15T14:57:46;100583.78;;;9.70;100.00
73063;BME280;61230;46.328;19.972;2022-11-15T15:00:15;100580.00;;;9.63;100.00
73063;BME280;61230;46.328;19.972;2022-11-15T15:02:45;100582.19;;;9.58;100.00
73063;BME280;61230;46.328;19.972;2022-11-15T15:05:16;100576.50;;;9.53;100.00
73063;BME280;61230;46.328;19.972;2022-11-15T15:07:44;100576.88;;;9.49;100.00
73063;BME280;61230;46.328;19.972;2022-11-15T15:10:13;100570.09;;;9.46;100.00
73063;BME280;61230;46.328;19.972;2022-11-15T15:13:03;100568.81;;;9.41;100.00
73063;BME280;61230;46.328;19.972;2022-11-15T15:15:35;100576.09;;;9.37;100.00
73063;BME280;61230;46.328;19.972;2022-11-15T15:18:05;100576.09;;;9.37;100.00
73063;BME280;61230;46.328;19.972;2022-11-15T15:20:38;100583.44;;;9.34;100.00
73063;BME280;61230;46.328;19.972;2022-11-15T15:23:16;100578.53;;;9.29;100.00
73063;BME280;61230;46.328;19.972;2022-11-15T15:25:44;100586.41;;;9.29;100.00
73063;BME280;61230;46.328;19.972;2022-11-15T15:28:13;100582.59;;;9.33;100.00
73063;BME280;61230;46.328;19.972;2022-11-15T15:30:41;100572.78;;;9.35;100.00
73063;BME280;61230;46.328;19.972;2022-11-15T15:33:08;100577.38;;;9.43;100.00
73063;BME280;61230;46.328;19.972;2022-11-15T15:35:36;100573.41;;;9.48;100.00
73063;BME280;61230;46.328;19.972;2022-11-15T15:38:04;100570.91;;;9.47;100.00
73063;BME280;61230;46.328;19.972;2022-11-15T15:40:32;100570.91;;;9.47;100.00
73063;BME280;61230;46.328;19.972;2022-11-15T15:43:00;100568.72;;;9.52;100.00
73063;BME280;61230;46.328;19.972;2022-11-15T15:45:28;100573.03;;;9.53;100.00
73063;BME280;61230;46.328;19.972;2022-11-15T15:47:57;100568.63;;;9.53;100.00
73063;BME280;61230;46.328;19.972;2022-11-15T15:50:26;100560.16;;;9.50;100.00
73063;BME280;61230;46.328;19.972;2022-11-15T15:52:56;100564.44;;;9.51;100.00
73063;BME280;61230;46.328;19.972;2022-11-15T15:55:24;100554.50;;;9.54;100.00
73063;BME280;61230;46.328;19.972;2022-11-15T15:57:53;100552.91;;;9.42;100.00
73063;BME280;61230;46.328;19.972;2022-11-15T16:00:25;100563.38;;;9.53;100.00
73063;BME280;61230;46.328;19.972;2022-11-15T16:02:53;100545.59;;;9.46;100.00